Airport Name : Bornholm Ronne

Other Name : Bornholm Ronne

ICAO : EKRN

IATA : RNN

FAA :

Latitude : 55.063267

Longitude : 14.759558

Country : Denmark

Local Date and Time : 19 Jun 2024 02:53

 

TAF (Terminal Aerodrome Forecast)

TAF EKRN 182302Z 1900/1909 VRB05KT 9999 BKN150 TEMPO 1900/1906 4000 RA BKN012 TEMPO 1906/1909 6000 -RA BKN012

 

METAR (METeorological Aerodrome Report)

EKRN 190050Z AUTO 06001KT 9000 -RA OVC078/// 14/13 Q1011

EKRN 190020Z AUTO 08001KT 9999 -RA OVC078/// 14/13 Q1011

EKRN 182350Z AUTO 31001KT 9999 RA OVC067/// 14/13 Q1011

EKRN 182320Z AUTO 35003KT 9999 -RA OVC082/// 14/13 Q1012

EKRN 182250Z AUTO 04003KT 9999 BKN091/// 15/13 Q1011

EKRN 182220Z AUTO 03002KT 9999 -RA FEW073/// OVC100/// 15/13 Q1011

EKRN 182150Z AUTO 08003KT 9999 -RA BKN097/// 14/13 Q1012

EKRN 182120Z AUTO 11002KT 9999 -RA OVC095/// 15/14 Q1012